หน้าหลัก
METAR-TAF:

METAR-TAF

ท่าอากาศยาน :

Stord, นอร์เวย์

ละติจูด: 59-48N, ลองจิจูด: 005-21E, ความสูง: 49 ม.

การสังเกตสภาพอากาศปัจจุบัน

รายงานได้ทำขึ้นเมื่อ 47 นาทีที่แล้ว ณ เวลา 11:20 UTC
ลม 9 นอตจากเหนือ/ตะวันตกเฉียงเหนือ
อุณหภูมิ 19°C
ความชื้น 78%
ความกดอากาศ 1006 hPa
ทัศนวิสัย 10 กม. หรือมากกว่า
มีเมฆกระจายเป็นบางส่วนที่ความสูง 2200 ฟุต

METAR: ENSO 151120Z 33009KT 9999 SCT022 19/15 Q1006

เวลา: 14:07 (12:07 UTC)

การพยากรณ์

รายงานได้ทำขึ้นเมื่อ 1 ชั่วโมงและ 7 นาทีที่แล้ว ณ เวลา 11:00 UTC
การพยากรณ์มีผลตั้งแต่วันที่ 15 ณ เวลา 12 UTC จนถึงวันที่ 15 ณ เวลา 18 UTC
ลม 8 นอตจากตะวันตก/ตะวันตกเฉียงใต้
ทัศนวิสัย 10 กม. หรือมากกว่า
มีเมฆน้อยที่ความสูง 1500 ฟุต
มีเมฆกระจายเป็นบางส่วนที่ความสูง 3000 ฟุต

TAF: ENSO 151100Z 1512/1518 24008KT 9999 FEW015 SCT030

สังเกตการณ์สภาพอากาศและพยากรณ์อากาศของสนามบินมากกว่า 4000 แห่ง (รายงาน METAR และ TAF).

สถานีที่ดูได้จะแสดงไว้ด้วยจุดสีเหลืองและสีแดงบนแผนที่.

เลื่อนเมาส์ไปเหนือจุดเพื่อดูชื่อสถานี.

แล้วคลิกเพื่อดูสังเกตการณ์และการพยากรณ์สภาพอากาศ.

ในการเปลี่ยนแผนที่: คลิกที่ปุ่มสีเขียวที่มีกากบาทสีดำเพื่อซูมเข้า; ที่ปุ่มสีเขียวที่มีขีดเพื่อซูมออก; หรือที่ลูกศรสีเขียวเพื่อไปยังแผนที่ที่อยู่ติดกัน.


METAR-TAF: